This is the latest recevied weather packets stored in our database for station/object OK0EK-12. If no packets are shown the sender has not sent any weather packets the latest 10 day(s).
| Time | Temp. | Humidity | Pressure | Rain* | Wind** | Luminosity | Snow |
|---|---|---|---|---|---|---|---|
| 1777733396 | 28.33° C | 18% | 1100.4 hPa | - | - | - | - |
| 1777732797 | 29.44° C | 12% | 1100.5 hPa | - | - | - | - |
| 1777732197 | 30° C | 15% | 1100.6 hPa | - | - | - | - |
| 1777731599 | 30° C | 15% | 1100.8 hPa | - | - | - | - |
| 1777731000 | 30.56° C | 15% | 1100.8 hPa | - | - | - | - |
| 1777730400 | 31.11° C | 16% | 1100.9 hPa | - | - | - | - |
| 1777729801 | 30.56° C | 16% | 1101 hPa | - | - | - | - |
| 1777729202 | 30.56° C | 18% | 1101.1 hPa | - | - | - | - |
| 1777728602 | 29.44° C | 18% | 1101.1 hPa | - | - | - | - |
| 1777728003 | 31.67° C | 16% | 1101.2 hPa | - | - | - | - |
| 1777727411 | 29.44° C | 17% | 1101.4 hPa | - | - | - | - |
| 1777726806 | 30.56° C | 17% | 1101.6 hPa | - | - | - | - |
| 1777726207 | 30.56° C | 16% | 1101.7 hPa | - | - | - | - |
| 1777725608 | 30.56° C | 16% | 1101.8 hPa | - | - | - | - |
| 1777725009 | 29.44° C | 18% | 1102 hPa | - | - | - | - |
| 1777724410 | 30.56° C | 16% | 1102.1 hPa | - | - | - | - |
| 1777723810 | 31.67° C | 16% | 1102.2 hPa | - | - | - | - |
| 1777723211 | 29.44° C | 18% | 1102.3 hPa | - | - | - | - |
| 1777722612 | 30° C | 17% | 1102.5 hPa | - | - | - | - |
| 1777722581 | 5° C | 77% | 1105 hPa | - | - | - | - |
| 1777722013 | 30° C | 19% | 1102.7 hPa | - | - | - | - |
| 1777721414 | 28.89° C | 19% | 1102.8 hPa | - | - | - | - |
| 1777720815 | 29.44° C | 20% | 1102.9 hPa | - | - | - | - |
| 1777720216 | 30° C | 20% | 1102.9 hPa | - | - | - | - |
| 1777719624 | 29.44° C | 19% | 1103.1 hPa | - | - | - | - |
* Rain since midnight (hover to see other rain measurements)
** Current wind speed in m/s (hover to see current wind gust speed)